createdAt,value
2022-09-05T00:00:24.478Z,77.65
2022-09-05T00:02:03.384Z,77.89
2022-09-05T00:03:35.613Z,77.57
2022-09-05T00:05:48.354Z,77.55
2022-09-05T00:07:10.968Z,77.70
2022-09-05T00:08:49.462Z,77.87
2022-09-05T00:10:09.099Z,78.20
2022-09-05T00:11:43.159Z,78.34
2022-09-05T00:12:50.779Z,78.27
2022-09-05T00:15:15.280Z,78.19
2022-09-05T00:16:31.635Z,78.47
2022-09-05T00:20:11.919Z,78.36
2022-09-05T00:24:19.942Z,78.62
2022-09-05T00:24:36.683Z,78.61
2022-09-05T00:25:00.918Z,79.00
2022-09-05T00:26:33.011Z,78.93
2022-09-05T00:28:26.123Z,79.42
2022-09-05T00:30:41.987Z,79.29
2022-09-05T00:31:54.249Z,79.68
2022-09-05T00:33:46.973Z,79.67
2022-09-05T00:35:19.252Z,79.67
2022-09-05T00:36:50.380Z,79.75
2022-09-05T00:37:56.176Z,79.38
2022-09-05T00:39:09.890Z,79.29
2022-09-05T00:40:45.076Z,79.39
2022-09-05T00:41:52.816Z,79.49
2022-09-05T00:43:27.793Z,79.46
2022-09-05T00:44:47.467Z,79.53
2022-09-05T00:46:04.756Z,79.48
2022-09-05T00:47:26.424Z,79.57
2022-09-05T00:49:09.915Z,79.55
2022-09-05T00:50:30.170Z,79.80
2022-09-05T00:52:13.390Z,79.75
2022-09-05T00:53:28.825Z,79.83
2022-09-05T00:54:43.847Z,80.05
2022-09-05T00:56:38.911Z,80.35
2022-09-05T00:58:19.286Z,80.25
2022-09-05T01:00:23.004Z,80.30
2022-09-05T01:01:47.344Z,80.20
2022-09-05T01:03:26.714Z,80.80
2022-09-05T01:04:53.447Z,81.09
2022-09-05T01:06:37.379Z,81.02
2022-09-05T01:07:55.712Z,80.98
2022-09-05T01:09:31.462Z,81.13
2022-09-05T01:10:57.211Z,81.28
2022-09-05T01:13:03.165Z,81.54
2022-09-05T01:14:39.801Z,81.53
2022-09-05T01:16:27.381Z,81.26
2022-09-05T01:17:50.043Z,80.93
2022-09-05T01:19:29.473Z,81.14
2022-09-05T01:21:24.216Z,81.12
2022-09-05T01:22:58.526Z,81.09
2022-09-05T01:24:28.039Z,81.09
2022-09-05T01:26:10.220Z,80.97
2022-09-05T01:29:13.490Z,80.91
2022-09-05T01:29:51.906Z,80.93
2022-09-05T01:31:24.354Z,81.38
2022-09-05T01:32:48.953Z,81.56
2022-09-05T01:34:24.887Z,81.57
2022-09-05T01:35:54.874Z,81.61
2022-09-05T01:37:33.972Z,81.54
2022-09-05T01:38:48.328Z,81.72
2022-09-05T01:40:20.134Z,81.56
2022-09-05T01:41:49.477Z,81.72
2022-09-05T01:43:14.393Z,81.55
2022-09-05T01:44:55.434Z,81.70
2022-09-05T01:46:17.721Z,81.48
2022-09-05T01:47:35.510Z,81.23
2022-09-05T01:49:16.116Z,81.24
2022-09-05T01:50:47.407Z,81.08
2022-09-05T01:52:13.817Z,81.12
2022-09-05T01:53:44.456Z,81.32
2022-09-05T01:55:15.823Z,81.28
2022-09-05T01:56:22.194Z,81.12
2022-09-05T01:57:44.322Z,81.27
2022-09-05T01:59:01.346Z,81.23
2022-09-05T02:00:24.463Z,81.16
2022-09-05T02:02:34.511Z,81.07
2022-09-05T02:04:07.341Z,81.25
2022-09-05T02:05:51.963Z,80.90
2022-09-05T02:07:50.507Z,80.99
2022-09-05T02:09:21.588Z,81.14
2022-09-05T02:10:49.108Z,81.14
2022-09-05T02:11:59.238Z,81.30
2022-09-05T02:13:38.097Z,81.28
2022-09-05T02:14:41.684Z,81.13
2022-09-05T02:16:21.297Z,81.48
2022-09-05T02:17:55.540Z,81.21
2022-09-05T02:19:12.364Z,81.30
2022-09-05T02:20:34.051Z,81.24
2022-09-05T02:22:10.261Z,81.36
2022-09-05T02:23:40.681Z,81.08
2022-09-05T02:25:00.232Z,80.93
2022-09-05T02:26:30.871Z,81.08
2022-09-05T02:28:04.919Z,81.08
2022-09-05T02:29:49.065Z,81.11
2022-09-05T02:31:19.411Z,81.48
2022-09-05T02:33:05.177Z,81.55
2022-09-05T02:34:22.391Z,81.37
2022-09-05T02:35:52.498Z,81.85
2022-09-05T02:37:15.236Z,81.71
2022-09-05T02:43:35.354Z,81.98
2022-09-05T02:45:07.731Z,81.61
2022-09-05T02:45:10.694Z,81.61
2022-09-05T02:45:20.776Z,81.85
2022-09-05T02:46:31.314Z,81.70
2022-09-05T02:48:48.794Z,81.62
2022-09-05T02:52:57.961Z,81.76
2022-09-05T02:57:23.678Z,81.55
2022-09-05T02:57:35.092Z,81.92
2022-09-05T02:57:41.360Z,81.87
2022-09-05T02:57:41.939Z,81.58
2022-09-05T02:59:06.081Z,81.89
2022-09-05T03:00:23.474Z,82.07
2022-09-05T03:01:57.429Z,82.03
2022-09-05T03:03:28.949Z,82.10
2022-09-05T03:04:55.690Z,81.99
2022-09-05T03:06:38.543Z,82.20
2022-09-05T03:07:47.672Z,82.23
2022-09-05T03:09:26.504Z,82.29
2022-09-05T03:10:54.732Z,82.12
2022-09-05T03:12:40.433Z,82.35
2022-09-05T03:14:41.539Z,82.43
2022-09-05T03:16:33.634Z,82.57
2022-09-05T03:18:23.701Z,82.58
2022-09-05T03:19:55.224Z,82.77
2022-09-05T03:21:38.224Z,82.93
2022-09-05T03:23:36.036Z,82.91
2022-09-05T03:25:23.071Z,83.06
2022-09-05T03:26:44.353Z,83.14
2022-09-05T03:28:30.638Z,82.98
2022-09-05T03:30:13.173Z,83.20
2022-09-05T03:31:57.161Z,83.52
2022-09-05T03:33:40.254Z,83.45
2022-09-05T03:35:37.395Z,83.34
2022-09-05T03:37:25.679Z,83.79
2022-09-05T03:38:34.915Z,83.59
2022-09-05T03:40:15.432Z,83.54
2022-09-05T03:41:41.334Z,83.63
2022-09-05T03:43:37.220Z,83.90
2022-09-05T03:44:49.340Z,83.73
2022-09-05T03:46:13.533Z,84.10
2022-09-05T03:47:28.882Z,83.94
2022-09-05T03:51:20.321Z,84.24
2022-09-05T03:54:22.941Z,83.87
2022-09-05T03:57:07.761Z,83.92
2022-09-05T03:57:16.677Z,84.26
2022-09-05T03:57:20.725Z,84.29
2022-09-05T03:58:57.820Z,84.36
2022-09-05T04:00:21.068Z,84.39
2022-09-05T04:02:40.371Z,84.47
2022-09-05T04:08:08.031Z,84.44
2022-09-05T04:08:16.719Z,84.57
2022-09-05T04:08:26.241Z,84.31
2022-09-05T04:09:04.335Z,84.66
2022-09-05T04:10:40.504Z,84.60
2022-09-05T04:12:18.998Z,84.67
2022-09-05T04:13:38.203Z,84.82
2022-09-05T04:14:53.182Z,84.77
2022-09-05T04:16:26.188Z,84.77
2022-09-05T04:17:40.245Z,84.50
2022-09-05T04:19:28.686Z,84.44
2022-09-05T04:21:01.666Z,84.56
2022-09-05T04:23:00.000Z,84.39
2022-09-05T04:24:29.731Z,84.72
2022-09-05T04:26:22.943Z,84.67
2022-09-05T04:27:51.081Z,84.76
2022-09-05T04:29:35.776Z,84.89
2022-09-05T04:31:22.183Z,84.84
2022-09-05T04:32:54.196Z,84.67
2022-09-05T04:34:34.613Z,84.93
2022-09-05T04:36:18.123Z,84.79
2022-09-05T04:38:13.979Z,84.66
2022-09-05T04:39:20.400Z,84.07
2022-09-05T04:40:56.941Z,84.45
2022-09-05T04:42:06.880Z,84.07
2022-09-05T04:43:58.771Z,84.41
2022-09-05T04:45:14.131Z,84.32
2022-09-05T04:46:48.793Z,84.44
2022-09-05T04:48:00.802Z,84.32
2022-09-05T04:49:32.303Z,84.69
2022-09-05T04:51:06.388Z,84.60
2022-09-05T04:53:01.031Z,84.91
2022-09-05T04:54:35.751Z,84.80
2022-09-05T04:55:50.541Z,84.61
2022-09-05T04:57:18.623Z,84.88
2022-09-05T04:58:54.209Z,84.67
2022-09-05T05:05:17.954Z,84.93
2022-09-05T05:06:10.313Z,84.45
2022-09-05T05:06:10.313Z,84.09
2022-09-05T05:06:13.729Z,84.11
2022-09-05T05:06:47.822Z,84.02
2022-09-05T05:07:59.343Z,84.10
2022-09-05T05:09:24.133Z,83.84
2022-09-05T05:17:55.596Z,83.87
2022-09-05T05:17:58.944Z,84.02
2022-09-05T05:18:06.720Z,82.80
2022-09-05T05:18:07.954Z,83.24
2022-09-05T05:18:10.725Z,83.60
2022-09-05T05:19:18.973Z,82.39
2022-09-05T05:20:44.102Z,81.68
2022-09-05T05:21:53.965Z,81.07
2022-09-05T05:23:09.780Z,80.65
2022-09-05T05:24:22.204Z,80.03
2022-09-05T05:25:28.182Z,79.58
2022-09-05T05:27:03.308Z,78.11
2022-09-05T05:28:38.709Z,77.49
2022-09-05T05:29:54.577Z,76.96
2022-09-05T05:31:27.238Z,76.86
2022-09-05T05:32:47.262Z,76.87
2022-09-05T05:33:53.972Z,76.74
2022-09-05T05:35:48.215Z,76.24
2022-09-05T05:37:18.430Z,76.10
2022-09-05T05:39:19.685Z,75.64
2022-09-05T05:40:31.643Z,75.36
2022-09-05T05:41:52.846Z,75.81
2022-09-05T05:43:17.477Z,75.54
2022-09-05T05:44:27.457Z,75.31
2022-09-05T05:45:33.881Z,75.05
2022-09-05T05:46:44.582Z,74.73
2022-09-05T05:48:04.651Z,73.67
2022-09-05T05:49:24.874Z,73.91
2022-09-05T05:51:06.248Z,73.69
2022-09-05T05:52:48.679Z,73.13
2022-09-05T05:54:39.036Z,72.70
2022-09-05T05:56:20.781Z,72.38
2022-09-05T05:57:46.621Z,70.67
2022-09-05T05:59:57.662Z,71.11
2022-09-05T06:01:37.307Z,70.76
2022-09-05T06:03:31.066Z,70.26
2022-09-05T06:05:14.654Z,69.49
2022-09-05T06:07:14.194Z,69.23
2022-09-05T06:13:28.978Z,68.60
2022-09-05T06:14:54.741Z,67.34
2022-09-05T06:15:04.539Z,65.81
2022-09-05T06:15:05.621Z,66.63
2022-09-05T06:16:24.371Z,64.50
2022-09-05T06:17:54.476Z,64.31
2022-09-05T06:19:51.809Z,63.32
2022-09-05T06:22:09.392Z,61.64
2022-09-05T06:23:48.033Z,60.61
2022-09-05T06:25:35.638Z,59.32
2022-09-05T06:27:13.394Z,58.75
2022-09-05T06:28:30.713Z,57.32
2022-09-05T06:29:55.767Z,56.16
2022-09-05T06:31:30.732Z,56.19
2022-09-05T06:33:03.222Z,54.62
2022-09-05T06:34:39.803Z,54.09
2022-09-05T06:36:09.068Z,53.26
2022-09-05T06:37:40.653Z,51.89
2022-09-05T06:38:59.697Z,50.92
2022-09-05T06:40:50.652Z,49.10
2022-09-05T06:42:43.647Z,48.54
2022-09-05T06:44:35.863Z,46.80
2022-09-05T06:47:22.458Z,45.41
2022-09-05T06:48:44.277Z,43.99
2022-09-05T06:50:26.815Z,41.86
2022-09-05T06:51:44.208Z,41.47
2022-09-05T06:53:20.974Z,39.28
2022-09-05T06:55:05.262Z,37.56
2022-09-05T06:56:56.575Z,36.32
2022-09-05T06:58:26.598Z,35.18
2022-09-05T06:59:57.965Z,34.28
2022-09-05T07:01:08.642Z,33.58
2022-09-05T07:03:00.119Z,32.35
2022-09-05T07:05:23.328Z,31.07
2022-09-05T07:05:44.447Z,30.42
2022-09-05T07:07:33.579Z,29.20
2022-09-05T07:08:54.224Z,28.74
2022-09-05T07:10:37.348Z,28.31
2022-09-05T07:12:31.091Z,26.79
2022-09-05T07:14:10.272Z,26.05
2022-09-05T07:15:56.922Z,25.77
2022-09-05T07:17:14.886Z,25.30
2022-09-05T07:19:00.109Z,24.24
2022-09-05T07:20:34.562Z,24.33
2022-09-05T07:22:48.401Z,23.46
2022-09-05T07:24:09.905Z,23.33
2022-09-05T07:25:27.337Z,22.70
2022-09-05T07:26:54.786Z,22.37
2022-09-05T07:28:29.606Z,22.11
2022-09-05T07:29:53.308Z,21.67
2022-09-05T07:31:27.683Z,21.40
2022-09-05T07:32:51.459Z,20.83
2022-09-05T07:34:37.204Z,20.71
2022-09-05T07:35:41.851Z,20.24
2022-09-05T07:37:14.265Z,19.85
2022-09-05T07:38:38.223Z,20.13
2022-09-05T07:40:25.700Z,20.46
2022-09-05T07:41:34.951Z,20.00
2022-09-05T07:43:10.111Z,19.90
2022-09-05T07:44:23.896Z,19.57
2022-09-05T07:45:30.191Z,19.62
2022-09-05T07:46:41.519Z,19.67
2022-09-05T07:48:03.247Z,19.49
2022-09-05T07:49:20.851Z,19.27
2022-09-05T07:54:31.644Z,19.23
2022-09-05T07:56:47.984Z,18.79
2022-09-05T07:56:55.976Z,18.61
2022-09-05T07:57:03.721Z,18.15
2022-09-05T07:57:22.204Z,17.91
2022-09-05T07:58:19.843Z,17.56
2022-09-05T07:59:26.540Z,17.75
2022-09-05T08:00:31.290Z,17.73
2022-09-05T08:01:40.349Z,17.67
2022-09-05T08:02:51.415Z,17.61
2022-09-05T08:04:02.501Z,17.58
2022-09-05T08:05:10.294Z,17.49
2022-09-05T08:07:14.302Z,17.49
2022-09-05T08:07:57.589Z,17.13
2022-09-05T08:10:07.032Z,17.18
2022-09-05T08:11:23.914Z,17.05
2022-09-05T08:12:28.620Z,17.61
2022-09-05T08:13:46.317Z,17.75
2022-09-05T08:15:19.141Z,17.62
2022-09-05T08:16:26.276Z,18.29
2022-09-05T08:17:31.272Z,18.28
2022-09-05T08:18:46.156Z,18.17
2022-09-05T08:20:16.762Z,18.21
2022-09-05T08:21:52.118Z,18.69
2022-09-05T08:23:40.493Z,19.39
2022-09-05T08:25:21.113Z,19.43
2022-09-05T08:26:46.878Z,19.26
2022-09-05T08:28:08.697Z,19.24
2022-09-05T08:29:26.403Z,19.35
2022-09-05T08:30:44.688Z,18.83
2022-09-05T08:32:13.514Z,18.36
2022-09-05T08:33:32.409Z,18.00
2022-09-05T08:34:52.899Z,17.33
2022-09-05T08:36:26.444Z,17.22
2022-09-05T08:37:32.863Z,17.25
2022-09-05T08:38:41.220Z,16.87
2022-09-05T08:39:49.159Z,16.88
2022-09-05T08:41:14.224Z,16.62
2022-09-05T08:46:38.065Z,16.63
2022-09-05T08:46:42.190Z,16.98
2022-09-05T08:46:50.029Z,17.71
2022-09-05T08:48:23.690Z,18.02
2022-09-05T08:49:59.629Z,18.56
2022-09-05T08:51:34.662Z,18.75
2022-09-05T08:53:02.619Z,19.10
2022-09-05T08:55:08.771Z,18.69
2022-09-05T08:56:25.572Z,18.85
2022-09-05T08:57:59.291Z,19.11
2022-09-05T09:00:11.994Z,19.75
2022-09-05T09:02:14.442Z,19.46
2022-09-05T09:03:59.280Z,19.18
2022-09-05T09:06:12.058Z,18.69
2022-09-05T09:07:52.120Z,18.05
2022-09-05T09:09:13.923Z,17.87
2022-09-05T09:10:40.525Z,17.92
2022-09-05T09:12:04.254Z,18.56
2022-09-05T09:13:40.195Z,19.21
2022-09-05T09:15:26.019Z,19.62
2022-09-05T09:16:50.735Z,19.74
2022-09-05T09:17:56.092Z,19.33
2022-09-05T09:19:35.090Z,19.44
2022-09-05T09:20:47.987Z,19.56
2022-09-05T09:22:18.865Z,20.54
2022-09-05T09:23:49.438Z,21.55
2022-09-05T09:25:15.487Z,22.74
2022-09-05T09:26:34.817Z,24.13
2022-09-05T09:28:49.965Z,25.82
2022-09-05T09:30:04.890Z,26.72
2022-09-05T09:31:32.486Z,27.69
2022-09-05T09:32:48.276Z,28.17
2022-09-05T09:34:12.001Z,29.21
2022-09-05T09:35:56.937Z,30.28
2022-09-05T09:37:54.392Z,30.72
2022-09-05T09:40:03.215Z,31.73
2022-09-05T09:41:21.719Z,32.37
2022-09-05T09:42:32.685Z,32.91
2022-09-05T09:43:40.475Z,33.08
2022-09-05T09:45:45.900Z,33.41
2022-09-05T09:46:52.184Z,34.01
2022-09-05T09:48:12.337Z,34.83
2022-09-05T09:49:35.686Z,35.02
2022-09-05T09:51:08.549Z,35.53
2022-09-05T09:52:24.705Z,35.65
2022-09-05T09:54:00.656Z,36.39
2022-09-05T09:55:41.609Z,36.47
2022-09-05T09:57:30.987Z,36.83
2022-09-05T09:58:53.664Z,37.09
2022-09-05T10:00:20.236Z,37.46
2022-09-05T10:01:36.620Z,37.49
2022-09-05T10:05:56.025Z,37.83
2022-09-05T10:10:36.002Z,37.93
2022-09-05T10:10:49.406Z,38.39
2022-09-05T10:10:59.636Z,38.24
2022-09-05T10:13:15.439Z,38.71
2022-09-05T10:15:18.623Z,38.64
2022-09-05T10:16:58.811Z,38.39
2022-09-05T10:18:24.374Z,38.48
2022-09-05T10:20:11.359Z,38.36
2022-09-05T10:24:04.804Z,38.31
2022-09-05T10:25:27.883Z,38.66
2022-09-05T10:26:50.916Z,38.49
2022-09-05T10:28:45.926Z,38.73
2022-09-05T10:30:07.956Z,39.13
2022-09-05T10:33:24.250Z,39.20
2022-09-05T10:35:07.807Z,39.44
2022-09-05T10:35:13.824Z,39.33
2022-09-05T10:36:03.249Z,39.25
2022-09-05T10:37:13.900Z,39.39
2022-09-05T10:38:36.752Z,40.05
2022-09-05T10:39:50.245Z,39.45
2022-09-05T10:41:22.089Z,39.94
2022-09-05T10:42:53.572Z,39.75
2022-09-05T10:44:04.591Z,40.39
2022-09-05T10:45:38.609Z,40.37
2022-09-05T10:47:14.021Z,40.11
2022-09-05T10:48:54.432Z,40.08
2022-09-05T10:50:29.281Z,40.19
2022-09-05T10:51:51.844Z,40.60
2022-09-05T10:53:17.754Z,40.63
2022-09-05T10:54:56.012Z,40.55
2022-09-05T10:56:28.842Z,40.68
2022-09-05T10:58:01.251Z,40.66
2022-09-05T10:59:33.116Z,40.62
2022-09-05T11:02:26.863Z,40.79
2022-09-05T11:02:36.771Z,40.93
2022-09-05T11:03:58.674Z,41.00
2022-09-05T11:05:40.220Z,40.60
2022-09-05T11:06:46.769Z,40.44
2022-09-05T11:08:06.189Z,40.65
2022-09-05T11:09:32.048Z,41.20
2022-09-05T11:10:53.864Z,41.25
2022-09-05T11:12:40.035Z,41.45
2022-09-05T11:13:50.506Z,41.23
2022-09-05T11:14:58.802Z,41.21
2022-09-05T11:16:49.941Z,41.15
2022-09-05T11:18:05.593Z,41.31
2022-09-05T11:19:49.693Z,41.68
2022-09-05T11:21:12.538Z,42.22
2022-09-05T11:22:23.883Z,41.96
2022-09-05T11:23:47.572Z,42.03
2022-09-05T11:25:15.280Z,42.05
2022-09-05T11:26:46.712Z,42.04
2022-09-05T11:29:01.311Z,41.89
2022-09-05T11:30:29.626Z,41.94
2022-09-05T11:36:44.370Z,41.98
2022-09-05T11:39:19.486Z,42.06
2022-09-05T11:39:51.484Z,42.28
2022-09-05T11:39:55.185Z,42.75
2022-09-05T11:39:55.959Z,42.63
2022-09-05T11:41:44.576Z,42.69
2022-09-05T11:42:59.574Z,43.12
2022-09-05T11:44:24.754Z,42.87
2022-09-05T11:46:06.159Z,43.21
2022-09-05T11:47:44.415Z,43.09
2022-09-05T11:49:12.873Z,43.03
2022-09-05T11:50:49.745Z,43.50
2022-09-05T11:52:45.402Z,43.68
2022-09-05T11:54:32.825Z,43.69
2022-09-05T11:55:54.651Z,43.62
2022-09-05T11:57:33.247Z,43.85
2022-09-05T11:59:16.227Z,43.95
2022-09-05T12:00:40.422Z,43.97
2022-09-05T12:02:10.993Z,43.88
2022-09-05T12:04:03.656Z,43.72
2022-09-05T12:05:48.388Z,43.63
2022-09-05T12:07:26.994Z,43.76
2022-09-05T12:09:10.807Z,42.81
2022-09-05T12:10:47.150Z,42.75
2022-09-05T12:12:39.439Z,42.87
2022-09-05T12:14:28.722Z,42.79
2022-09-05T12:15:36.050Z,42.30
2022-09-05T12:16:45.433Z,42.47
2022-09-05T12:18:26.140Z,41.89
2022-09-05T12:20:02.187Z,41.68
2022-09-05T12:21:38.925Z,41.35
2022-09-05T12:23:06.322Z,41.28
2022-09-05T12:25:24.394Z,41.65
2022-09-05T12:27:40.097Z,41.81
2022-09-05T12:28:39.124Z,41.93
2022-09-05T12:29:48.661Z,42.05
2022-09-05T12:32:52.374Z,41.63
2022-09-05T12:36:02.409Z,41.76
2022-09-05T12:36:07.741Z,41.54
2022-09-05T12:40:45.024Z,41.90
2022-09-05T12:40:46.236Z,41.95
2022-09-05T12:41:38.267Z,42.01
2022-09-05T12:42:37.227Z,42.02
2022-09-05T12:44:42.345Z,41.74
2022-09-05T12:45:50.581Z,41.87
2022-09-05T12:47:18.937Z,42.21
2022-09-05T12:48:39.216Z,41.83
2022-09-05T12:50:15.277Z,41.61
2022-09-05T12:51:46.828Z,41.66
2022-09-05T12:52:59.891Z,41.54
2022-09-05T12:54:45.514Z,41.35
2022-09-05T12:56:52.899Z,41.53
2022-09-05T13:02:56.424Z,41.42
2022-09-05T13:03:01.031Z,41.33
2022-09-05T13:03:12.277Z,41.43
2022-09-05T13:03:13.989Z,41.29
2022-09-05T13:03:53.508Z,40.99
2022-09-05T13:05:16.272Z,41.10
2022-09-05T13:06:39.662Z,40.79
2022-09-05T13:07:58.394Z,41.10
2022-09-05T13:09:23.165Z,41.04
2022-09-05T13:13:07.910Z,40.89
2022-09-05T13:14:53.687Z,41.09
2022-09-05T13:14:54.433Z,40.91
2022-09-05T13:15:43.646Z,41.07
2022-09-05T13:16:51.166Z,41.11
2022-09-05T13:18:10.481Z,40.81
2022-09-05T13:19:52.867Z,40.67
2022-09-05T13:21:05.339Z,40.29
2022-09-05T13:22:11.283Z,40.43
2022-09-05T13:23:37.575Z,40.36
2022-09-05T13:24:49.612Z,40.51
2022-09-05T13:26:08.135Z,40.36
2022-09-05T13:27:39.547Z,40.25
2022-09-05T13:29:15.222Z,40.20
2022-09-05T13:32:02.553Z,40.11
2022-09-05T13:37:55.307Z,40.46
2022-09-05T13:38:12.200Z,40.47
2022-09-05T13:38:14.440Z,40.36
2022-09-05T13:38:16.289Z,40.63
2022-09-05T13:39:03.893Z,40.13
2022-09-05T13:40:25.397Z,40.01
2022-09-05T13:41:42.903Z,39.92
2022-09-05T13:43:14.040Z,39.92
2022-09-05T13:44:26.613Z,39.98
2022-09-05T13:45:35.786Z,40.21
2022-09-05T13:47:30.385Z,40.13
2022-09-05T13:50:20.595Z,39.88
2022-09-05T13:52:05.342Z,40.07
2022-09-05T13:53:36.844Z,40.13
2022-09-05T13:54:52.521Z,40.05
2022-09-05T13:56:20.399Z,40.04
2022-09-05T13:57:40.859Z,39.97
2022-09-05T13:58:56.605Z,39.79
2022-09-05T14:00:18.719Z,40.08
2022-09-05T14:01:49.785Z,40.18
2022-09-05T14:03:56.817Z,39.96
2022-09-05T14:05:20.798Z,40.26
2022-09-05T14:11:07.242Z,40.01
2022-09-05T14:12:15.436Z,40.04
2022-09-05T14:13:26.093Z,39.26
2022-09-05T14:16:24.614Z,39.28
2022-09-05T14:17:51.956Z,39.39
2022-09-05T14:19:16.042Z,39.02
2022-09-05T14:20:43.023Z,39.02
2022-09-05T14:21:48.072Z,39.16
2022-09-05T14:23:15.876Z,39.08
2022-09-05T14:24:28.018Z,38.84
2022-09-05T14:25:43.221Z,38.92
2022-09-05T14:27:12.127Z,38.94
2022-09-05T14:28:38.057Z,39.21
2022-09-05T14:29:48.605Z,39.14
2022-09-05T14:33:11.064Z,39.38
2022-09-05T14:37:36.716Z,39.25
2022-09-05T14:37:52.108Z,39.91
2022-09-05T14:37:53.762Z,39.93
2022-09-05T14:39:15.705Z,40.00
2022-09-05T14:41:23.260Z,40.28
2022-09-05T14:42:40.630Z,39.95
2022-09-05T14:44:41.755Z,39.98
2022-09-05T14:46:03.868Z,39.89
2022-09-05T14:47:47.465Z,39.62
2022-09-05T14:49:35.666Z,39.49
2022-09-05T14:51:04.860Z,39.53
2022-09-05T14:52:35.492Z,39.08
2022-09-05T14:54:10.337Z,38.55
2022-09-05T14:57:28.629Z,38.71
2022-09-05T15:02:46.362Z,38.90
2022-09-05T15:02:50.083Z,38.76
2022-09-05T15:02:53.354Z,38.73
2022-09-05T15:03:02.619Z,38.62
2022-09-05T15:05:35.897Z,38.76
2022-09-05T15:06:39.866Z,38.83
2022-09-05T15:07:55.248Z,39.15
2022-09-05T15:11:25.695Z,38.96
2022-09-05T15:12:15.235Z,39.03
2022-09-05T15:12:39.676Z,39.19
2022-09-05T15:14:01.545Z,39.49
2022-09-05T15:15:07.795Z,39.19
2022-09-05T15:16:15.650Z,39.15
2022-09-05T15:17:26.333Z,39.28
2022-09-05T15:18:39.365Z,39.57
2022-09-05T15:20:08.115Z,39.73
2022-09-05T15:21:33.231Z,39.69
2022-09-05T15:22:44.773Z,39.91
2022-09-05T15:24:17.546Z,40.05
2022-09-05T15:25:28.022Z,39.96
2022-09-05T15:26:32.085Z,39.77
2022-09-05T15:27:35.676Z,39.98
2022-09-05T15:28:49.873Z,39.86
2022-09-05T15:29:58.203Z,39.66
2022-09-05T15:31:08.243Z,39.92
2022-09-05T15:32:22.050Z,39.77
2022-09-05T15:33:29.865Z,39.77
2022-09-05T15:34:33.721Z,39.84
2022-09-05T15:35:44.230Z,39.59
2022-09-05T15:36:48.047Z,39.65
2022-09-05T15:37:51.671Z,39.84
2022-09-05T15:38:58.402Z,39.64
2022-09-05T15:40:24.323Z,39.44
2022-09-05T15:41:30.117Z,39.66
2022-09-05T15:43:02.281Z,39.64
2022-09-05T15:44:11.629Z,39.61
2022-09-05T15:45:24.684Z,39.74
2022-09-05T15:46:57.311Z,39.99
2022-09-05T15:48:15.324Z,40.11
2022-09-05T15:49:49.451Z,40.15
2022-09-05T15:50:59.828Z,39.81
2022-09-05T15:52:17.698Z,39.72
2022-09-05T15:53:29.469Z,40.05
2022-09-05T15:54:40.890Z,40.10
2022-09-05T15:55:50.438Z,40.13
2022-09-05T15:57:09.063Z,40.15
2022-09-05T15:58:21.997Z,40.24
2022-09-05T15:59:34.676Z,40.20
2022-09-05T16:00:51.313Z,40.23
2022-09-05T16:02:00.342Z,40.46
2022-09-05T16:06:12.671Z,40.70
2022-09-05T16:10:29.557Z,40.58
2022-09-05T16:10:29.755Z,40.65
2022-09-05T16:10:33.562Z,40.88
2022-09-05T16:10:33.772Z,40.61
2022-09-05T16:13:00.054Z,41.16
2022-09-05T16:14:30.288Z,41.30
2022-09-05T16:19:51.904Z,41.34
2022-09-05T16:23:15.915Z,41.09
2022-09-05T16:23:17.780Z,41.32
2022-09-05T16:23:29.519Z,41.49
2022-09-05T16:23:34.528Z,41.64
2022-09-05T16:24:05.904Z,41.72
2022-09-05T16:25:28.418Z,41.64
2022-09-05T16:26:45.270Z,41.69
2022-09-05T16:28:16.341Z,41.88
2022-09-05T16:29:32.579Z,41.94
2022-09-05T16:30:39.278Z,41.94
2022-09-05T16:32:18.159Z,42.20
2022-09-05T16:33:28.649Z,42.27
2022-09-05T16:35:06.400Z,42.42
2022-09-05T16:36:21.170Z,42.24
2022-09-05T16:37:46.083Z,42.48
2022-09-05T16:39:02.948Z,42.53
2022-09-05T16:40:25.624Z,42.51
2022-09-05T16:41:59.734Z,42.57
2022-09-05T16:43:24.191Z,42.63
2022-09-05T16:44:54.863Z,42.81
2022-09-05T16:46:25.230Z,42.66
2022-09-05T16:47:43.075Z,42.76
2022-09-05T16:49:13.227Z,42.49
2022-09-05T16:50:34.811Z,42.59
2022-09-05T16:51:50.321Z,42.66
2022-09-05T16:53:30.749Z,42.74
2022-09-05T16:54:43.342Z,42.64
2022-09-05T16:55:57.543Z,42.61
2022-09-05T16:57:11.124Z,42.61
2022-09-05T16:58:18.217Z,42.86
2022-09-05T16:59:32.910Z,43.00
2022-09-05T17:01:30.214Z,42.88
2022-09-05T17:02:54.672Z,42.96
2022-09-05T17:04:27.686Z,43.20
2022-09-05T17:05:41.062Z,43.11
2022-09-05T17:07:08.650Z,43.34
2022-09-05T17:08:27.922Z,43.33
2022-09-05T17:09:37.305Z,43.58
2022-09-05T17:10:57.691Z,43.58
2022-09-05T17:12:13.506Z,43.83
2022-09-05T17:13:55.105Z,43.88
2022-09-05T17:15:08.462Z,43.79
2022-09-05T17:16:37.391Z,43.70
2022-09-05T17:18:21.229Z,43.84
2022-09-05T17:19:22.404Z,44.02
2022-09-05T17:20:35.765Z,44.02
2022-09-05T17:25:40.090Z,44.18
2022-09-05T17:27:00.813Z,44.25
2022-09-05T17:29:20.755Z,44.31
2022-09-05T17:29:23.805Z,44.33
2022-09-05T17:29:33.944Z,44.23
2022-09-05T17:31:53.602Z,44.54
2022-09-05T17:32:59.786Z,44.77
2022-09-05T17:34:18.690Z,44.58
2022-09-05T17:35:53.996Z,44.75
2022-09-05T17:37:19.794Z,44.86
2022-09-05T17:38:48.278Z,44.87
2022-09-05T17:40:33.816Z,44.88
2022-09-05T17:41:55.196Z,45.10
2022-09-05T17:43:28.677Z,45.45
2022-09-05T17:45:13.007Z,46.12
2022-09-05T17:46:34.101Z,45.55
2022-09-05T17:47:52.131Z,45.85
2022-09-05T17:50:33.389Z,45.75
2022-09-05T17:51:53.387Z,45.92
2022-09-05T17:52:59.886Z,46.01
2022-09-05T17:54:30.771Z,46.16
2022-09-05T17:55:40.844Z,46.10
2022-09-05T17:56:47.388Z,46.21
2022-09-05T17:57:51.023Z,46.11
2022-09-05T17:59:18.787Z,46.25
2022-09-05T18:00:46.336Z,46.12
2022-09-05T18:02:08.130Z,46.02
2022-09-05T18:03:31.815Z,46.30
2022-09-05T18:04:45.884Z,46.26
2022-09-05T18:05:57.994Z,46.46
2022-09-05T18:07:26.983Z,46.27
2022-09-05T18:08:45.646Z,46.29
2022-09-05T18:10:15.395Z,46.46
2022-09-05T18:11:33.471Z,46.32
2022-09-05T18:13:12.759Z,46.38
2022-09-05T18:14:24.624Z,46.53
2022-09-05T18:15:29.177Z,46.41
2022-09-05T18:17:35.127Z,46.61
2022-09-05T18:18:30.017Z,46.72
2022-09-05T18:20:23.940Z,46.45
2022-09-05T18:22:06.523Z,46.55
2022-09-05T18:23:39.148Z,46.64
2022-09-05T18:25:28.154Z,46.69
2022-09-05T18:26:48.823Z,46.53
2022-09-05T18:28:22.027Z,46.61
2022-09-05T18:30:09.805Z,46.55
2022-09-05T18:31:41.453Z,46.70
2022-09-05T18:32:54.196Z,46.74
2022-09-05T18:34:21.024Z,46.69
2022-09-05T18:35:37.865Z,46.69
2022-09-05T18:36:48.729Z,46.76
2022-09-05T18:38:14.896Z,46.69
2022-09-05T18:39:25.029Z,46.61
2022-09-05T18:41:00.757Z,46.74
2022-09-05T18:42:33.021Z,46.82
2022-09-05T18:44:13.197Z,46.88
2022-09-05T18:45:28.681Z,47.05
2022-09-05T18:47:01.401Z,46.93
2022-09-05T18:48:10.965Z,46.78
2022-09-05T18:50:23.358Z,46.80
2022-09-05T18:50:51.123Z,46.87
2022-09-05T18:52:23.197Z,46.86
2022-09-05T18:53:32.246Z,46.96
2022-09-05T18:54:37.276Z,46.77
2022-09-05T18:56:10.357Z,46.92
2022-09-05T18:57:32.036Z,46.76
2022-09-05T18:58:52.331Z,46.82
2022-09-05T19:00:09.425Z,46.85
2022-09-05T19:01:38.057Z,46.94
2022-09-05T19:02:58.892Z,46.76
2022-09-05T19:04:39.583Z,46.92
2022-09-05T19:06:34.770Z,47.05
2022-09-05T19:07:47.919Z,47.45
2022-09-05T19:09:08.809Z,47.08
2022-09-05T19:10:34.318Z,47.31
2022-09-05T19:11:55.075Z,47.31
2022-09-05T19:13:19.601Z,47.47
2022-09-05T19:14:53.616Z,47.55
2022-09-05T19:16:42.466Z,47.50
2022-09-05T19:17:46.879Z,47.58
2022-09-05T19:19:24.812Z,47.67
2022-09-05T19:21:12.008Z,47.60
2022-09-05T19:23:08.643Z,47.79
2022-09-05T19:24:02.424Z,47.71
2022-09-05T19:25:06.480Z,47.50
2022-09-05T19:26:10.252Z,47.73
2022-09-05T19:32:33.123Z,47.64
2022-09-05T19:36:44.312Z,47.76
2022-09-05T19:37:05.616Z,47.91
2022-09-05T19:37:06.992Z,47.77
2022-09-05T19:37:08.027Z,47.73
2022-09-05T19:37:13.243Z,47.69
2022-09-05T19:37:13.411Z,47.83
2022-09-05T19:38:12.764Z,47.81
2022-09-05T19:41:30.088Z,47.74
2022-09-05T19:47:26.850Z,47.64
2022-09-05T19:47:29.369Z,47.95
2022-09-05T19:47:40.605Z,47.61
2022-09-05T19:47:41.271Z,47.51
2022-09-05T19:47:47.234Z,47.62
2022-09-05T19:48:34.669Z,47.46
2022-09-05T19:49:39.217Z,47.50